sensor_id;sensor_type;location;lat;lon;timestamp;temperature;humidity
18147;DHT22;9199;48.832;9.182;2023-07-29T00:01:18;17.20;99.90
18147;DHT22;9199;48.832;9.182;2023-07-29T00:03:45;17.20;99.90
18147;DHT22;9199;48.832;9.182;2023-07-29T00:06:12;17.20;99.90
18147;DHT22;9199;48.832;9.182;2023-07-29T00:08:39;17.10;99.90
18147;DHT22;9199;48.832;9.182;2023-07-29T00:11:07;17.10;99.90
18147;DHT22;9199;48.832;9.182;2023-07-29T00:13:34;17.20;99.90
18147;DHT22;9199;48.832;9.182;2023-07-29T00:16:00;17.20;99.90
18147;DHT22;9199;48.832;9.182;2023-07-29T00:18:27;17.20;99.90
18147;DHT22;9199;48.832;9.182;2023-07-29T00:20:54;17.20;99.90
18147;DHT22;9199;48.832;9.182;2023-07-29T00:23:21;17.20;99.90
18147;DHT22;9199;48.832;9.182;2023-07-29T00:25:48;17.20;99.90
18147;DHT22;9199;48.832;9.182;2023-07-29T00:28:16;17.30;99.90
18147;DHT22;9199;48.832;9.182;2023-07-29T00:30:43;17.30;99.90
18147;DHT22;9199;48.832;9.182;2023-07-29T00:33:09;17.40;99.90
18147;DHT22;9199;48.832;9.182;2023-07-29T00:35:36;17.40;99.90
18147;DHT22;9199;48.832;9.182;2023-07-29T00:38:03;17.30;99.90
18147;DHT22;9199;48.832;9.182;2023-07-29T00:40:30;17.30;99.90
18147;DHT22;9199;48.832;9.182;2023-07-29T00:42:57;17.30;99.90
18147;DHT22;9199;48.832;9.182;2023-07-29T00:45:25;17.30;99.90
18147;DHT22;9199;48.832;9.182;2023-07-29T00:47:53;17.30;99.90
18147;DHT22;9199;48.832;9.182;2023-07-29T00:50:20;17.40;99.90
18147;DHT22;9199;48.832;9.182;2023-07-29T00:52:48;17.40;99.90
18147;DHT22;9199;48.832;9.182;2023-07-29T00:55:16;17.40;99.90
18147;DHT22;9199;48.832;9.182;2023-07-29T00:57:43;17.40;99.90
18147;DHT22;9199;48.832;9.182;2023-07-29T01:00:14;17.50;99.90
18147;DHT22;9199;48.832;9.182;2023-07-29T01:02:42;17.50;99.90
18147;DHT22;9199;48.832;9.182;2023-07-29T01:05:12;17.50;99.90
18147;DHT22;9199;48.832;9.182;2023-07-29T01:07:46;17.60;99.90
18147;DHT22;9199;48.832;9.182;2023-07-29T01:10:22;17.60;99.90
18147;DHT22;9199;48.832;9.182;2023-07-29T01:12:58;17.60;99.90
18147;DHT22;9199;48.832;9.182;2023-07-29T01:15:31;17.60;99.90
18147;DHT22;9199;48.832;9.182;2023-07-29T01:18:04;17.60;99.90
18147;DHT22;9199;48.832;9.182;2023-07-29T01:20:33;17.60;99.90
18147;DHT22;9199;48.832;9.182;2023-07-29T01:23:00;17.60;99.90
18147;DHT22;9199;48.832;9.182;2023-07-29T01:25:28;17.60;99.90
18147;DHT22;9199;48.832;9.182;2023-07-29T01:27:55;17.60;99.90
18147;DHT22;9199;48.832;9.182;2023-07-29T01:30:27;17.60;99.90
18147;DHT22;9199;48.832;9.182;2023-07-29T01:32:58;17.60;99.90
18147;DHT22;9199;48.832;9.182;2023-07-29T01:35:28;17.60;99.90
18147;DHT22;9199;48.832;9.182;2023-07-29T01:38:06;17.70;99.90
18147;DHT22;9199;48.832;9.182;2023-07-29T01:40:37;17.70;99.90
18147;DHT22;9199;48.832;9.182;2023-07-29T01:43:04;17.70;99.90
18147;DHT22;9199;48.832;9.182;2023-07-29T01:45:33;17.70;99.90
18147;DHT22;9199;48.832;9.182;2023-07-29T01:48:03;17.70;99.90
18147;DHT22;9199;48.832;9.182;2023-07-29T01:50:30;17.70;99.90
18147;DHT22;9199;48.832;9.182;2023-07-29T01:52:57;17.70;99.90
18147;DHT22;9199;48.832;9.182;2023-07-29T01:55:24;17.70;99.90
18147;DHT22;9199;48.832;9.182;2023-07-29T01:57:52;17.70;99.90
18147;DHT22;9199;48.832;9.182;2023-07-29T02:00:19;17.70;99.90
18147;DHT22;9199;48.832;9.182;2023-07-29T02:02:46;17.70;99.90
18147;DHT22;9199;48.832;9.182;2023-07-29T02:05:13;17.70;99.90
18147;DHT22;9199;48.832;9.182;2023-07-29T02:07:40;17.80;99.90
18147;DHT22;9199;48.832;9.182;2023-07-29T02:10:07;17.80;99.90
18147;DHT22;9199;48.832;9.182;2023-07-29T02:12:34;17.80;99.90
18147;DHT22;9199;48.832;9.182;2023-07-29T02:15:03;17.80;99.90
18147;DHT22;9199;48.832;9.182;2023-07-29T02:17:29;17.90;99.90
18147;DHT22;9199;48.832;9.182;2023-07-29T02:19:56;17.90;99.90
18147;DHT22;9199;48.832;9.182;2023-07-29T02:22:23;17.90;99.90
18147;DHT22;9199;48.832;9.182;2023-07-29T02:24:50;17.90;99.90
18147;DHT22;9199;48.832;9.182;2023-07-29T02:27:16;17.90;99.90
18147;DHT22;9199;48.832;9.182;2023-07-29T02:29:43;17.90;99.90
18147;DHT22;9199;48.832;9.182;2023-07-29T02:32:11;18.00;99.90
18147;DHT22;9199;48.832;9.182;2023-07-29T02:34:38;17.90;99.90
18147;DHT22;9199;48.832;9.182;2023-07-29T02:37:04;17.90;99.90
18147;DHT22;9199;48.832;9.182;2023-07-29T02:39:31;17.90;99.90
18147;DHT22;9199;48.832;9.182;2023-07-29T02:41:58;17.80;99.90
18147;DHT22;9199;48.832;9.182;2023-07-29T02:44:25;17.80;99.90
18147;DHT22;9199;48.832;9.182;2023-07-29T02:46:51;17.90;99.90
18147;DHT22;9199;48.832;9.182;2023-07-29T02:49:21;17.80;99.90
18147;DHT22;9199;48.832;9.182;2023-07-29T02:51:48;17.70;99.90
18147;DHT22;9199;48.832;9.182;2023-07-29T02:54:15;17.70;99.90
18147;DHT22;9199;48.832;9.182;2023-07-29T02:56:42;17.70;99.90
18147;DHT22;9199;48.832;9.182;2023-07-29T02:59:08;17.60;99.90
18147;DHT22;9199;48.832;9.182;2023-07-29T03:01:35;17.60;99.90
18147;DHT22;9199;48.832;9.182;2023-07-29T03:04:02;17.60;99.90
18147;DHT22;9199;48.832;9.182;2023-07-29T03:06:30;17.50;99.90
18147;DHT22;9199;48.832;9.182;2023-07-29T03:08:57;17.50;99.90
18147;DHT22;9199;48.832;9.182;2023-07-29T03:11:23;17.50;99.90
18147;DHT22;9199;48.832;9.182;2023-07-29T03:13:50;17.50;99.90
18147;DHT22;9199;48.832;9.182;2023-07-29T03:16:17;17.50;99.90
18147;DHT22;9199;48.832;9.182;2023-07-29T03:18:44;17.50;99.90
18147;DHT22;9199;48.832;9.182;2023-07-29T03:21:11;17.40;99.90
18147;DHT22;9199;48.832;9.182;2023-07-29T03:23:40;17.40;99.90
18147;DHT22;9199;48.832;9.182;2023-07-29T03:26:07;17.40;99.90
18147;DHT22;9199;48.832;9.182;2023-07-29T03:28:37;17.30;99.90
18147;DHT22;9199;48.832;9.182;2023-07-29T03:31:04;17.30;99.90
18147;DHT22;9199;48.832;9.182;2023-07-29T03:33:31;17.30;99.90
18147;DHT22;9199;48.832;9.182;2023-07-29T03:35:58;17.40;99.90
18147;DHT22;9199;48.832;9.182;2023-07-29T03:38:24;17.40;99.90
18147;DHT22;9199;48.832;9.182;2023-07-29T03:40:53;17.40;99.90
18147;DHT22;9199;48.832;9.182;2023-07-29T03:43:19;17.50;99.90
18147;DHT22;9199;48.832;9.182;2023-07-29T03:45:46;17.50;99.90
18147;DHT22;9199;48.832;9.182;2023-07-29T03:48:13;17.40;99.90
18147;DHT22;9199;48.832;9.182;2023-07-29T03:50:39;17.50;99.90
18147;DHT22;9199;48.832;9.182;2023-07-29T03:53:06;17.40;99.90
18147;DHT22;9199;48.832;9.182;2023-07-29T03:55:35;17.40;99.90
18147;DHT22;9199;48.832;9.182;2023-07-29T03:58:03;17.50;99.90
18147;DHT22;9199;48.832;9.182;2023-07-29T04:00:30;17.50;99.90
18147;DHT22;9199;48.832;9.182;2023-07-29T04:02:57;17.50;99.90
18147;DHT22;9199;48.832;9.182;2023-07-29T04:05:23;17.60;99.90
18147;DHT22;9199;48.832;9.182;2023-07-29T04:07:50;17.60;99.90
18147;DHT22;9199;48.832;9.182;2023-07-29T04:10:18;17.50;99.90
18147;DHT22;9199;48.832;9.182;2023-07-29T04:12:45;17.50;99.90
18147;DHT22;9199;48.832;9.182;2023-07-29T04:15:13;17.40;99.90
18147;DHT22;9199;48.832;9.182;2023-07-29T04:17:40;17.40;99.90
18147;DHT22;9199;48.832;9.182;2023-07-29T04:20:07;17.40;99.90
18147;DHT22;9199;48.832;9.182;2023-07-29T04:22:34;17.40;99.90
18147;DHT22;9199;48.832;9.182;2023-07-29T04:25:01;17.40;99.90
18147;DHT22;9199;48.832;9.182;2023-07-29T04:27:30;17.30;99.90
18147;DHT22;9199;48.832;9.182;2023-07-29T04:29:56;17.30;99.90
18147;DHT22;9199;48.832;9.182;2023-07-29T04:32:24;17.40;99.90
18147;DHT22;9199;48.832;9.182;2023-07-29T04:34:52;17.40;99.90
18147;DHT22;9199;48.832;9.182;2023-07-29T04:37:19;17.40;99.90
18147;DHT22;9199;48.832;9.182;2023-07-29T04:39:45;17.40;99.90
18147;DHT22;9199;48.832;9.182;2023-07-29T04:42:12;17.30;99.90
18147;DHT22;9199;48.832;9.182;2023-07-29T04:44:39;17.30;99.90
18147;DHT22;9199;48.832;9.182;2023-07-29T04:47:07;17.30;99.90
18147;DHT22;9199;48.832;9.182;2023-07-29T04:49:35;17.30;99.90
18147;DHT22;9199;48.832;9.182;2023-07-29T04:52:02;17.40;99.90
18147;DHT22;9199;48.832;9.182;2023-07-29T04:54:29;17.40;99.90
18147;DHT22;9199;48.832;9.182;2023-07-29T04:56:56;17.50;99.90
18147;DHT22;9199;48.832;9.182;2023-07-29T04:59:22;17.50;99.90
18147;DHT22;9199;48.832;9.182;2023-07-29T05:01:50;17.60;99.90
18147;DHT22;9199;48.832;9.182;2023-07-29T05:04:16;17.60;99.90
18147;DHT22;9199;48.832;9.182;2023-07-29T05:06:44;17.60;99.90
18147;DHT22;9199;48.832;9.182;2023-07-29T05:09:15;17.60;99.90
18147;DHT22;9199;48.832;9.182;2023-07-29T05:11:42;17.60;99.90
18147;DHT22;9199;48.832;9.182;2023-07-29T05:14:10;17.70;99.90
18147;DHT22;9199;48.832;9.182;2023-07-29T05:16:37;17.70;99.90
18147;DHT22;9199;48.832;9.182;2023-07-29T05:19:04;17.60;99.90
18147;DHT22;9199;48.832;9.182;2023-07-29T05:21:31;17.60;99.90
18147;DHT22;9199;48.832;9.182;2023-07-29T05:23:59;17.70;99.90
18147;DHT22;9199;48.832;9.182;2023-07-29T05:26:26;17.70;99.90
18147;DHT22;9199;48.832;9.182;2023-07-29T05:28:52;17.70;99.90
18147;DHT22;9199;48.832;9.182;2023-07-29T05:31:19;17.80;99.90
18147;DHT22;9199;48.832;9.182;2023-07-29T05:33:46;17.80;99.90
18147;DHT22;9199;48.832;9.182;2023-07-29T05:36:12;17.90;99.90
18147;DHT22;9199;48.832;9.182;2023-07-29T05:38:39;17.90;99.90
18147;DHT22;9199;48.832;9.182;2023-07-29T05:41:07;17.90;99.90
18147;DHT22;9199;48.832;9.182;2023-07-29T05:43:34;18.00;99.90
18147;DHT22;9199;48.832;9.182;2023-07-29T05:46:01;18.00;99.90
18147;DHT22;9199;48.832;9.182;2023-07-29T05:48:27;18.00;99.90
18147;DHT22;9199;48.832;9.182;2023-07-29T05:50:54;18.10;99.90
18147;DHT22;9199;48.832;9.182;2023-07-29T05:53:21;18.10;99.90
18147;DHT22;9199;48.832;9.182;2023-07-29T05:55:47;18.20;99.90
18147;DHT22;9199;48.832;9.182;2023-07-29T05:58:16;18.30;99.90
18147;DHT22;9199;48.832;9.182;2023-07-29T06:00:43;18.50;99.90
18147;DHT22;9199;48.832;9.182;2023-07-29T06:03:09;18.60;99.90
18147;DHT22;9199;48.832;9.182;2023-07-29T06:05:36;18.80;99.90
18147;DHT22;9199;48.832;9.182;2023-07-29T06:08:03;18.90;99.90
18147;DHT22;9199;48.832;9.182;2023-07-29T06:10:30;19.00;99.90
18147;DHT22;9199;48.832;9.182;2023-07-29T06:12:56;19.20;99.90
18147;DHT22;9199;48.832;9.182;2023-07-29T06:15:25;19.30;99.90
18147;DHT22;9199;48.832;9.182;2023-07-29T06:17:51;19.40;99.90
18147;DHT22;9199;48.832;9.182;2023-07-29T06:20:18;19.50;99.90
18147;DHT22;9199;48.832;9.182;2023-07-29T06:22:45;19.60;99.90
18147;DHT22;9199;48.832;9.182;2023-07-29T06:25:12;19.70;99.90
18147;DHT22;9199;48.832;9.182;2023-07-29T06:27:39;19.80;99.90
18147;DHT22;9199;48.832;9.182;2023-07-29T06:30:07;19.90;99.90
18147;DHT22;9199;48.832;9.182;2023-07-29T06:32:35;19.90;99.90
18147;DHT22;9199;48.832;9.182;2023-07-29T06:35:02;19.90;99.90
18147;DHT22;9199;48.832;9.182;2023-07-29T06:37:29;19.90;99.90
18147;DHT22;9199;48.832;9.182;2023-07-29T06:39:55;20.00;99.90
18147;DHT22;9199;48.832;9.182;2023-07-29T06:42:22;20.00;99.90
18147;DHT22;9199;48.832;9.182;2023-07-29T06:44:49;19.80;99.90
18147;DHT22;9199;48.832;9.182;2023-07-29T06:47:15;19.70;99.90
18147;DHT22;9199;48.832;9.182;2023-07-29T06:49:45;19.60;99.90
18147;DHT22;9199;48.832;9.182;2023-07-29T06:52:12;19.50;99.90
18147;DHT22;9199;48.832;9.182;2023-07-29T06:54:38;19.40;99.90
18147;DHT22;9199;48.832;9.182;2023-07-29T06:57:06;19.40;99.90
18147;DHT22;9199;48.832;9.182;2023-07-29T06:59:33;19.30;99.90
18147;DHT22;9199;48.832;9.182;2023-07-29T07:02:00;19.20;99.90
18147;DHT22;9199;48.832;9.182;2023-07-29T07:04:27;19.20;99.90
18147;DHT22;9199;48.832;9.182;2023-07-29T07:06:55;19.20;99.90
18147;DHT22;9199;48.832;9.182;2023-07-29T07:09:22;19.20;99.90
18147;DHT22;9199;48.832;9.182;2023-07-29T07:11:49;19.10;99.90
18147;DHT22;9199;48.832;9.182;2023-07-29T07:14:15;19.00;99.90
18147;DHT22;9199;48.832;9.182;2023-07-29T07:16:42;19.00;99.90
18147;DHT22;9199;48.832;9.182;2023-07-29T07:19:09;18.90;99.90
18147;DHT22;9199;48.832;9.182;2023-07-29T07:21:35;18.90;99.90
18147;DHT22;9199;48.832;9.182;2023-07-29T07:24:04;18.80;99.90
18147;DHT22;9199;48.832;9.182;2023-07-29T07:26:30;18.70;99.90
18147;DHT22;9199;48.832;9.182;2023-07-29T07:28:57;18.80;99.90
18147;DHT22;9199;48.832;9.182;2023-07-29T07:31:24;18.80;99.90
18147;DHT22;9199;48.832;9.182;2023-07-29T07:33:50;18.80;99.90
18147;DHT22;9199;48.832;9.182;2023-07-29T07:36:17;18.90;99.90
18147;DHT22;9199;48.832;9.182;2023-07-29T07:38:44;18.90;99.90
18147;DHT22;9199;48.832;9.182;2023-07-29T07:41:12;19.00;99.90
18147;DHT22;9199;48.832;9.182;2023-07-29T07:43:39;19.10;99.90
18147;DHT22;9199;48.832;9.182;2023-07-29T07:46:05;19.20;99.90
18147;DHT22;9199;48.832;9.182;2023-07-29T07:48:32;19.30;99.90
18147;DHT22;9199;48.832;9.182;2023-07-29T07:50:59;19.40;99.90
18147;DHT22;9199;48.832;9.182;2023-07-29T07:53:26;19.60;99.90
18147;DHT22;9199;48.832;9.182;2023-07-29T07:55:53;19.70;99.90
18147;DHT22;9199;48.832;9.182;2023-07-29T07:58:21;19.80;99.90
18147;DHT22;9199;48.832;9.182;2023-07-29T08:00:47;19.90;99.90
18147;DHT22;9199;48.832;9.182;2023-07-29T08:03:14;20.00;99.90
18147;DHT22;9199;48.832;9.182;2023-07-29T08:05:41;20.10;99.90
18147;DHT22;9199;48.832;9.182;2023-07-29T08:08:08;20.40;99.90
18147;DHT22;9199;48.832;9.182;2023-07-29T08:10:34;20.80;99.90
18147;DHT22;9199;48.832;9.182;2023-07-29T08:13:01;21.00;99.90
18147;DHT22;9199;48.832;9.182;2023-07-29T08:15:29;20.90;99.90
18147;DHT22;9199;48.832;9.182;2023-07-29T08:17:56;20.90;99.90
18147;DHT22;9199;48.832;9.182;2023-07-29T08:20:23;21.00;99.90
18147;DHT22;9199;48.832;9.182;2023-07-29T08:22:49;21.40;99.90
18147;DHT22;9199;48.832;9.182;2023-07-29T08:25:16;21.80;99.90
18147;DHT22;9199;48.832;9.182;2023-07-29T08:27:43;21.90;99.90
18147;DHT22;9199;48.832;9.182;2023-07-29T08:30:10;21.80;99.90
18147;DHT22;9199;48.832;9.182;2023-07-29T08:32:38;21.70;99.90
18147;DHT22;9199;48.832;9.182;2023-07-29T08:35:05;21.40;99.90
18147;DHT22;9199;48.832;9.182;2023-07-29T08:37:32;21.50;99.90
18147;DHT22;9199;48.832;9.182;2023-07-29T08:39:59;21.60;99.90
18147;DHT22;9199;48.832;9.182;2023-07-29T08:42:29;21.70;99.90
18147;DHT22;9199;48.832;9.182;2023-07-29T08:44:59;21.80;99.90
18147;DHT22;9199;48.832;9.182;2023-07-29T08:47:28;21.90;99.90
18147;DHT22;9199;48.832;9.182;2023-07-29T08:49:56;22.20;99.90
18147;DHT22;9199;48.832;9.182;2023-07-29T08:52:25;22.80;99.90
18147;DHT22;9199;48.832;9.182;2023-07-29T08:54:52;23.70;99.90
18147;DHT22;9199;48.832;9.182;2023-07-29T08:57:20;24.60;99.90
18147;DHT22;9199;48.832;9.182;2023-07-29T08:59:47;24.90;99.90
18147;DHT22;9199;48.832;9.182;2023-07-29T09:02:14;25.30;99.90
18147;DHT22;9199;48.832;9.182;2023-07-29T09:04:40;25.30;99.90
18147;DHT22;9199;48.832;9.182;2023-07-29T09:07:09;25.30;99.90
18147;DHT22;9199;48.832;9.182;2023-07-29T09:09:36;26.00;99.90
18147;DHT22;9199;48.832;9.182;2023-07-29T09:12:03;26.70;99.90
18147;DHT22;9199;48.832;9.182;2023-07-29T09:14:31;26.90;99.90
18147;DHT22;9199;48.832;9.182;2023-07-29T09:16:57;27.00;99.90
18147;DHT22;9199;48.832;9.182;2023-07-29T09:19:25;27.30;99.90
18147;DHT22;9199;48.832;9.182;2023-07-29T09:21:52;27.50;99.90
18147;DHT22;9199;48.832;9.182;2023-07-29T09:24:21;28.10;99.90
18147;DHT22;9199;48.832;9.182;2023-07-29T09:26:51;28.40;99.90
18147;DHT22;9199;48.832;9.182;2023-07-29T09:29:22;28.10;99.90
18147;DHT22;9199;48.832;9.182;2023-07-29T09:31:48;28.90;99.90
18147;DHT22;9199;48.832;9.182;2023-07-29T09:34:15;29.40;99.90
18147;DHT22;9199;48.832;9.182;2023-07-29T09:36:42;29.40;99.90
18147;DHT22;9199;48.832;9.182;2023-07-29T09:39:11;29.00;99.90
18147;DHT22;9199;48.832;9.182;2023-07-29T09:41:39;28.80;99.90
18147;DHT22;9199;48.832;9.182;2023-07-29T09:44:07;28.90;99.90
18147;DHT22;9199;48.832;9.182;2023-07-29T09:46:34;28.90;99.90
18147;DHT22;9199;48.832;9.182;2023-07-29T09:49:02;28.40;99.90
18147;DHT22;9199;48.832;9.182;2023-07-29T09:51:30;27.80;99.90
18147;DHT22;9199;48.832;9.182;2023-07-29T09:53:57;27.10;99.90
18147;DHT22;9199;48.832;9.182;2023-07-29T09:56:25;26.80;99.90
18147;DHT22;9199;48.832;9.182;2023-07-29T09:58:55;26.90;99.90
18147;DHT22;9199;48.832;9.182;2023-07-29T10:01:23;26.90;99.90
18147;DHT22;9199;48.832;9.182;2023-07-29T10:03:49;26.80;99.90
18147;DHT22;9199;48.832;9.182;2023-07-29T10:06:17;26.80;99.90
18147;DHT22;9199;48.832;9.182;2023-07-29T10:08:45;26.70;99.90
18147;DHT22;9199;48.832;9.182;2023-07-29T10:11:12;26.50;99.90
18147;DHT22;9199;48.832;9.182;2023-07-29T10:13:38;26.70;99.90
18147;DHT22;9199;48.832;9.182;2023-07-29T10:16:07;27.30;99.90
18147;DHT22;9199;48.832;9.182;2023-07-29T10:18:34;27.00;99.90
18147;DHT22;9199;48.832;9.182;2023-07-29T10:21:01;26.60;99.90
18147;DHT22;9199;48.832;9.182;2023-07-29T10:23:34;26.00;99.90
18147;DHT22;9199;48.832;9.182;2023-07-29T10:26:05;25.50;99.90
18147;DHT22;9199;48.832;9.182;2023-07-29T10:28:32;25.10;99.90
18147;DHT22;9199;48.832;9.182;2023-07-29T10:31:00;24.60;99.90
18147;DHT22;9199;48.832;9.182;2023-07-29T10:33:31;24.20;99.90
18147;DHT22;9199;48.832;9.182;2023-07-29T10:36:00;23.90;99.90
18147;DHT22;9199;48.832;9.182;2023-07-29T10:38:28;24.10;99.90
18147;DHT22;9199;48.832;9.182;2023-07-29T10:40:56;24.10;99.90
18147;DHT22;9199;48.832;9.182;2023-07-29T10:43:26;24.30;99.90
18147;DHT22;9199;48.832;9.182;2023-07-29T10:45:53;24.30;99.90
18147;DHT22;9199;48.832;9.182;2023-07-29T10:48:40;24.70;99.90
18147;DHT22;9199;48.832;9.182;2023-07-29T10:51:24;25.20;99.90
18147;DHT22;9199;48.832;9.182;2023-07-29T10:53:55;25.30;99.90
18147;DHT22;9199;48.832;9.182;2023-07-29T10:56:26;25.70;99.90
18147;DHT22;9199;48.832;9.182;2023-07-29T10:58:55;26.20;99.90
18147;DHT22;9199;48.832;9.182;2023-07-29T11:01:32;27.20;99.90
18147;DHT22;9199;48.832;9.182;2023-07-29T11:04:27;27.40;99.90
18147;DHT22;9199;48.832;9.182;2023-07-29T11:07:23;27.00;99.90
18147;DHT22;9199;48.832;9.182;2023-07-29T11:09:54;27.00;99.90
18147;DHT22;9199;48.832;9.182;2023-07-29T11:12:42;27.20;99.90
18147;DHT22;9199;48.832;9.182;2023-07-29T11:15:16;28.10;99.90
18147;DHT22;9199;48.832;9.182;2023-07-29T11:17:45;28.80;99.90
18147;DHT22;9199;48.832;9.182;2023-07-29T11:20:14;29.40;99.90
18147;DHT22;9199;48.832;9.182;2023-07-29T11:22:41;29.60;99.10
18147;DHT22;9199;48.832;9.182;2023-07-29T11:25:09;29.30;99.40
18147;DHT22;9199;48.832;9.182;2023-07-29T11:27:37;28.70;99.90
18147;DHT22;9199;48.832;9.182;2023-07-29T11:30:05;28.00;99.90
18147;DHT22;9199;48.832;9.182;2023-07-29T11:32:34;27.00;99.90
18147;DHT22;9199;48.832;9.182;2023-07-29T11:35:02;26.20;99.90
18147;DHT22;9199;48.832;9.182;2023-07-29T11:37:30;25.80;99.90
18147;DHT22;9199;48.832;9.182;2023-07-29T11:39:57;25.50;99.90
18147;DHT22;9199;48.832;9.182;2023-07-29T11:42:26;25.60;99.90
18147;DHT22;9199;48.832;9.182;2023-07-29T11:44:53;25.80;99.90
18147;DHT22;9199;48.832;9.182;2023-07-29T11:47:20;26.00;99.90
18147;DHT22;9199;48.832;9.182;2023-07-29T11:49:47;25.90;99.90
18147;DHT22;9199;48.832;9.182;2023-07-29T11:52:13;25.70;99.90
18147;DHT22;9199;48.832;9.182;2023-07-29T11:54:47;25.60;99.90
18147;DHT22;9199;48.832;9.182;2023-07-29T11:57:14;25.80;99.90
18147;DHT22;9199;48.832;9.182;2023-07-29T11:59:42;26.00;99.90
18147;DHT22;9199;48.832;9.182;2023-07-29T12:02:11;26.50;99.90
18147;DHT22;9199;48.832;9.182;2023-07-29T12:04:39;27.00;99.90
18147;DHT22;9199;48.832;9.182;2023-07-29T12:07:06;27.60;99.90
18147;DHT22;9199;48.832;9.182;2023-07-29T12:09:33;28.40;99.00
18147;DHT22;9199;48.832;9.182;2023-07-29T12:12:02;28.70;97.50
18147;DHT22;9199;48.832;9.182;2023-07-29T12:14:29;28.80;97.30
18147;DHT22;9199;48.832;9.182;2023-07-29T12:16:56;29.00;97.40
18147;DHT22;9199;48.832;9.182;2023-07-29T12:19:31;30.00;95.90
18147;DHT22;9199;48.832;9.182;2023-07-29T12:21:58;30.50;94.90
18147;DHT22;9199;48.832;9.182;2023-07-29T12:24:24;30.70;94.10
18147;DHT22;9199;48.832;9.182;2023-07-29T12:26:51;31.20;92.10
18147;DHT22;9199;48.832;9.182;2023-07-29T12:29:19;31.30;92.00
18147;DHT22;9199;48.832;9.182;2023-07-29T12:31:46;31.40;89.70
18147;DHT22;9199;48.832;9.182;2023-07-29T12:34:18;30.50;90.30
18147;DHT22;9199;48.832;9.182;2023-07-29T12:36:46;30.40;90.10
18147;DHT22;9199;48.832;9.182;2023-07-29T12:39:17;29.90;83.60
18147;DHT22;9199;48.832;9.182;2023-07-29T12:41:44;29.40;84.70
18147;DHT22;9199;48.832;9.182;2023-07-29T12:44:11;29.30;83.90
18147;DHT22;9199;48.832;9.182;2023-07-29T12:46:39;29.20;83.00
18147;DHT22;9199;48.832;9.182;2023-07-29T12:49:06;29.60;82.50
18147;DHT22;9199;48.832;9.182;2023-07-29T12:51:33;30.00;81.80
18147;DHT22;9199;48.832;9.182;2023-07-29T12:54:00;30.60;80.20
18147;DHT22;9199;48.832;9.182;2023-07-29T12:56:26;31.40;80.00
18147;DHT22;9199;48.832;9.182;2023-07-29T12:58:53;31.60;75.80
18147;DHT22;9199;48.832;9.182;2023-07-29T13:01:20;32.00;74.40
18147;DHT22;9199;48.832;9.182;2023-07-29T13:03:48;32.20;75.30
18147;DHT22;9199;48.832;9.182;2023-07-29T13:06:16;31.50;74.00
18147;DHT22;9199;48.832;9.182;2023-07-29T13:08:43;31.00;75.50
18147;DHT22;9199;48.832;9.182;2023-07-29T13:11:10;30.70;77.70
18147;DHT22;9199;48.832;9.182;2023-07-29T13:13:37;30.80;77.60
18147;DHT22;9199;48.832;9.182;2023-07-29T13:16:04;31.10;77.30
18147;DHT22;9199;48.832;9.182;2023-07-29T13:18:31;31.50;72.40
18147;DHT22;9199;48.832;9.182;2023-07-29T13:21:00;31.90;71.00
18147;DHT22;9199;48.832;9.182;2023-07-29T13:23:27;31.80;71.00
18147;DHT22;9199;48.832;9.182;2023-07-29T13:25:55;31.60;72.30
18147;DHT22;9199;48.832;9.182;2023-07-29T13:28:21;32.20;71.70
18147;DHT22;9199;48.832;9.182;2023-07-29T13:30:48;32.30;70.00
18147;DHT22;9199;48.832;9.182;2023-07-29T13:33:15;31.50;70.40
18147;DHT22;9199;48.832;9.182;2023-07-29T13:35:42;31.00;74.10
18147;DHT22;9199;48.832;9.182;2023-07-29T13:38:10;30.90;72.80
18147;DHT22;9199;48.832;9.182;2023-07-29T13:40:37;30.00;74.10
18147;DHT22;9199;48.832;9.182;2023-07-29T13:43:04;29.30;75.90
18147;DHT22;9199;48.832;9.182;2023-07-29T13:45:31;28.70;79.00
18147;DHT22;9199;48.832;9.182;2023-07-29T13:47:57;28.40;79.00
18147;DHT22;9199;48.832;9.182;2023-07-29T13:50:24;28.30;80.10
18147;DHT22;9199;48.832;9.182;2023-07-29T13:52:51;27.90;79.50
18147;DHT22;9199;48.832;9.182;2023-07-29T13:55:19;27.60;81.50
18147;DHT22;9199;48.832;9.182;2023-07-29T13:57:46;27.40;81.50
18147;DHT22;9199;48.832;9.182;2023-07-29T14:00:13;27.20;81.90
18147;DHT22;9199;48.832;9.182;2023-07-29T14:02:41;27.20;82.90
18147;DHT22;9199;48.832;9.182;2023-07-29T14:05:08;27.30;83.80
18147;DHT22;9199;48.832;9.182;2023-07-29T14:07:37;27.60;84.10
18147;DHT22;9199;48.832;9.182;2023-07-29T14:10:04;27.90;82.70
18147;DHT22;9199;48.832;9.182;2023-07-29T14:12:32;28.10;82.10
18147;DHT22;9199;48.832;9.182;2023-07-29T14:14:59;28.70;80.00
18147;DHT22;9199;48.832;9.182;2023-07-29T14:17:25;29.70;79.00
18147;DHT22;9199;48.832;9.182;2023-07-29T14:19:53;30.90;75.70
18147;DHT22;9199;48.832;9.182;2023-07-29T14:22:19;32.30;72.80
18147;DHT22;9199;48.832;9.182;2023-07-29T14:24:46;33.30;70.10
18147;DHT22;9199;48.832;9.182;2023-07-29T14:27:13;33.60;67.60
18147;DHT22;9199;48.832;9.182;2023-07-29T14:29:43;33.70;66.70
18147;DHT22;9199;48.832;9.182;2023-07-29T14:32:09;32.60;69.50
18147;DHT22;9199;48.832;9.182;2023-07-29T14:34:36;31.60;71.20
18147;DHT22;9199;48.832;9.182;2023-07-29T14:37:04;30.40;73.90
18147;DHT22;9199;48.832;9.182;2023-07-29T14:39:31;29.40;75.90
18147;DHT22;9199;48.832;9.182;2023-07-29T14:41:58;28.40;79.80
18147;DHT22;9199;48.832;9.182;2023-07-29T14:44:24;28.00;81.50
18147;DHT22;9199;48.832;9.182;2023-07-29T14:46:52;27.80;82.80
18147;DHT22;9199;48.832;9.182;2023-07-29T14:49:20;27.90;83.00
18147;DHT22;9199;48.832;9.182;2023-07-29T14:51:47;27.80;82.80
18147;DHT22;9199;48.832;9.182;2023-07-29T14:54:14;27.80;83.90
18147;DHT22;9199;48.832;9.182;2023-07-29T14:56:40;28.10;83.20
18147;DHT22;9199;48.832;9.182;2023-07-29T14:59:07;28.60;82.50
18147;DHT22;9199;48.832;9.182;2023-07-29T15:01:34;28.80;81.40
18147;DHT22;9199;48.832;9.182;2023-07-29T15:04:02;29.60;80.80
18147;DHT22;9199;48.832;9.182;2023-07-29T15:06:29;29.90;79.70
18147;DHT22;9199;48.832;9.182;2023-07-29T15:08:56;29.60;80.30
18147;DHT22;9199;48.832;9.182;2023-07-29T15:11:23;28.80;81.70
18147;DHT22;9199;48.832;9.182;2023-07-29T15:13:49;28.30;83.50
18147;DHT22;9199;48.832;9.182;2023-07-29T15:16:16;28.50;83.20
18147;DHT22;9199;48.832;9.182;2023-07-29T15:18:43;29.60;81.00
18147;DHT22;9199;48.832;9.182;2023-07-29T15:21:11;30.60;77.80
18147;DHT22;9199;48.832;9.182;2023-07-29T15:23:37;31.10;75.80
18147;DHT22;9199;48.832;9.182;2023-07-29T15:26:04;30.90;75.60
18147;DHT22;9199;48.832;9.182;2023-07-29T15:28:31;30.40;77.80
18147;DHT22;9199;48.832;9.182;2023-07-29T15:30:57;30.20;78.70
18147;DHT22;9199;48.832;9.182;2023-07-29T15:33:24;29.80;78.90
18147;DHT22;9199;48.832;9.182;2023-07-29T15:35:51;29.40;80.30
18147;DHT22;9199;48.832;9.182;2023-07-29T15:38:19;29.20;80.70
18147;DHT22;9199;48.832;9.182;2023-07-29T15:40:46;29.30;81.30
18147;DHT22;9199;48.832;9.182;2023-07-29T15:43:14;29.70;80.00
18147;DHT22;9199;48.832;9.182;2023-07-29T15:45:41;29.50;81.10
18147;DHT22;9199;48.832;9.182;2023-07-29T15:48:09;29.10;81.90